Time;durP1;ratioP1;P1;durP2;ratioP2;P2;SDS_P1;SDS_P2;PMS_P1;PMS_P2;Temp;Humidity;BMP_temperature;BMP_pressure;BME280_temperature;BME280_humidity;BME280_pressure;Samples;Min_cycle;Max_cycle;Signal;HPM_P1;HPM_P2
2022/05/21 00:00:50;;;;;;;6.70;5.20;;;;;;;14.88;70.18;99813.80;84808;1327;24239;-71
2022/05/21 00:02:58;;;;;;;14.40;5.90;;;;;;;14.92;70.70;99811.60;84800;1325;22640;-72
2022/05/21 00:05:06;;;;;;;9.10;4.90;;;;;;;14.93;71.22;99809.08;84791;1327;22587;-72
2022/05/21 00:07:13;;;;;;;9.30;5.30;;;;;;;14.95;71.61;99802.23;84697;1326;22597;-71
2022/05/21 00:09:21;;;;;;;10.10;5.40;;;;;;;14.98;71.62;99799.86;84801;1328;22608;-72
2022/05/21 00:11:29;;;;;;;7.60;6.10;;;;;;;14.99;71.97;99795.71;84683;1326;22648;-73
2022/05/21 00:13:36;;;;;;;15.60;6.20;;;;;;;15.02;72.26;99792.35;84784;1326;25609;-72
2022/05/21 00:15:44;;;;;;;9.80;5.70;;;;;;;15.05;72.38;99794.98;84814;1331;25345;-72
2022/05/21 00:17:51;;;;;;;11.10;7.10;;;;;;;15.08;72.76;99800.77;84726;1327;22608;-72
2022/05/21 00:19:59;;;;;;;13.20;7.90;;;;;;;15.13;73.10;99801.63;84697;1321;22664;-72
2022/05/21 00:22:07;;;;;;;9.00;6.50;;;;;;;15.18;73.37;99795.16;84758;1324;22671;-72
2022/05/21 00:24:15;;;;;;;8.60;7.60;;;;;;;15.23;73.43;99788.69;84794;1326;22597;-73
2022/05/21 00:26:23;;;;;;;13.80;7.40;;;;;;;15.23;73.82;99782.69;84739;1327;22613;-72
2022/05/21 00:28:31;;;;;;;9.30;6.70;;;;;;;15.24;74.05;99776.30;84729;1329;22622;-72
2022/05/21 00:30:38;;;;;;;12.10;7.60;;;;;;;15.25;74.23;99769.19;84674;1330;25772;-71
2022/05/21 00:32:47;;;;;;;12.10;7.70;;;;;;;15.27;74.39;99762.61;84691;1327;25312;-72
2022/05/21 00:34:54;;;;;;;16.30;7.80;;;;;;;15.29;74.59;99753.48;84678;1328;24272;-73
2022/05/21 00:37:02;;;;;;;9.00;6.90;;;;;;;15.33;74.63;99745.34;84679;1327;26507;-71
2022/05/21 00:39:09;;;;;;;11.40;7.50;;;;;;;15.37;74.76;99743.95;84679;1327;22687;-72
2022/05/21 00:41:18;;;;;;;8.70;7.80;;;;;;;15.42;74.87;99745.05;84693;1321;22651;-72
2022/05/21 00:43:44;;;;;;;15.80;8.70;;;;;;;15.44;75.00;99762.09;84678;1327;22584;-71
2022/05/21 00:45:51;;;;;;;15.60;9.00;;;;;;;15.50;75.15;99810.39;84675;1328;22646;-72
2022/05/21 00:47:59;;;;;;;24.00;8.60;;;;;;;15.58;75.51;99869.80;84678;1327;22634;-71
2022/05/21 00:50:07;;;;;;;16.00;8.90;;;;;;;15.65;75.94;99903.16;84669;1330;26951;-71
2022/05/21 00:52:17;;;;;;;13.80;8.00;;;;;;;15.70;75.86;99903.30;84683;1323;22753;-71
2022/05/21 00:54:28;;;;;;;18.90;7.50;;;;;;;15.75;75.73;99910.20;84684;1329;22735;-71
2022/05/21 00:56:37;;;;;;;11.90;7.40;;;;;;;15.80;75.74;99911.34;84696;1329;22588;-72
2022/05/21 01:01:10;;;;;;;12.20;8.00;;;;;;;15.83;75.77;99885.05;84681;1328;24209;-71
2022/05/21 01:03:17;;;;;;;11.60;8.20;;;;;;;15.85;75.92;99859.61;84673;1327;24025;-71
2022/05/21 01:05:27;;;;;;;11.60;8.20;;;;;;;15.85;75.82;99850.27;84689;1321;22586;-71
2022/05/21 01:07:34;;;;;;;10.50;9.40;;;;;;;15.85;75.94;99829.16;84671;1327;22604;-71
2022/05/21 01:09:45;;;;;;;15.30;9.40;;;;;;;15.86;76.07;99810.13;84683;1326;22667;-71
2022/05/21 01:11:52;;;;;;;13.70;8.90;;;;;;;15.84;75.90;99787.90;84678;1327;22705;-71
2022/05/21 01:13:59;;;;;;;10.80;8.40;;;;;;;15.82;75.95;99773.48;84703;1331;22896;-72
2022/05/21 01:16:08;;;;;;;10.90;9.10;;;;;;;15.80;76.30;99774.11;84679;1323;22651;-71
2022/05/21 01:18:15;;;;;;;14.30;9.00;;;;;;;15.78;76.43;99757.77;84670;1327;22577;-70
2022/05/21 01:20:24;;;;;;;12.90;8.80;;;;;;;15.76;76.69;99733.78;84686;1323;22584;-71
2022/05/21 01:22:32;;;;;;;10.60;9.60;;;;;;;15.76;76.51;99719.00;84706;1326;22602;-71
2022/05/21 01:24:39;;;;;;;15.70;9.60;;;;;;;15.80;76.63;99711.14;84700;1327;25327;-72
2022/05/21 01:26:46;;;;;;;12.80;9.00;;;;;;;15.81;76.53;99727.78;84699;1329;22591;-71
2022/05/21 01:28:54;;;;;;;15.30;9.80;;;;;;;15.78;76.68;99732.38;84677;1330;23062;-72
2022/05/21 01:31:02;;;;;;;10.80;9.50;;;;;;;15.73;76.93;99722.17;84687;1324;22603;-72
2022/05/21 01:33:12;;;;;;;11.90;10.50;;;;;;;15.72;77.28;99714.35;84703;1324;22617;-72
2022/05/21 01:35:20;;;;;;;14.10;10.00;;;;;;;15.72;77.65;99712.95;84653;1326;22603;-72
2022/05/21 01:37:29;;;;;;;13.60;10.00;;;;;;;15.71;77.75;99705.45;84677;1326;24106;-71
2022/05/21 01:39:36;;;;;;;13.80;11.20;;;;;;;15.72;77.69;99703.80;84674;1327;25435;-72
2022/05/21 01:41:46;;;;;;;12.10;10.60;;;;;;;15.73;77.71;99700.20;84657;1326;22592;-72
2022/05/21 01:46:33;;;;;;;12.30;10.90;;;;;;;15.66;78.04;99697.05;84545;1333;24014;-72
2022/05/21 01:48:40;;;;;;;16.80;11.20;;;;;;;15.64;78.21;99694.48;84516;1331;22676;-73
2022/05/21 01:50:47;;;;;;;14.80;9.80;;;;;;;15.62;78.35;99680.56;84444;1335;26745;-72
2022/05/21 01:52:55;;;;;;;11.00;9.50;;;;;;;15.62;78.54;99667.06;84612;1326;22619;-72
2022/05/21 01:55:02;;;;;;;13.30;10.50;;;;;;;15.62;78.79;99657.18;84671;1324;22681;-71
2022/05/21 01:57:11;;;;;;;12.60;10.50;;;;;;;15.64;78.73;99651.81;84695;1330;22603;-72
2022/05/21 01:59:19;;;;;;;13.10;11.10;;;;;;;15.66;78.67;99644.77;84679;1328;23987;-72
2022/05/21 02:01:26;;;;;;;13.00;9.90;;;;;;;15.65;78.59;99642.05;84654;1328;25333;-72
2022/05/21 02:03:33;;;;;;;13.90;10.40;;;;;;;15.66;78.67;99633.52;84694;1326;24491;-71
2022/05/21 02:05:44;;;;;;;15.20;10.40;;;;;;;15.66;78.84;99623.66;84688;1330;22607;-73
2022/05/21 02:07:52;;;;;;;12.00;10.30;;;;;;;15.67;78.88;99609.20;84685;1327;24300;-71
2022/05/21 02:09:59;;;;;;;11.80;10.10;;;;;;;15.68;78.85;99599.65;84740;1326;24119;-72
2022/05/21 02:12:14;;;;;;;15.10;11.00;;;;;;;15.68;78.90;99594.52;84790;1329;22597;-72
2022/05/21 02:14:22;;;;;;;14.20;11.90;;;;;;;15.68;79.09;99595.02;84785;1326;22589;-71
2022/05/21 02:16:29;;;;;;;10.70;9.60;;;;;;;15.66;78.86;99591.15;84764;1321;23059;-72
2022/05/21 02:18:36;;;;;;;11.90;10.20;;;;;;;15.66;78.81;99587.27;84771;1327;22586;-72
2022/05/21 02:20:44;;;;;;;13.60;10.90;;;;;;;15.66;78.92;99583.96;84797;1326;22578;-72
2022/05/21 02:22:51;;;;;;;13.40;10.90;;;;;;;15.69;79.02;99577.23;84775;1329;22661;-72
2022/05/21 02:24:58;;;;;;;10.90;9.80;;;;;;;15.73;79.09;99566.92;84808;1329;22646;-71
2022/05/21 02:27:09;;;;;;;15.90;10.40;;;;;;;15.75;78.99;99563.94;84799;1328;22606;-71
2022/05/21 02:29:18;;;;;;;11.20;10.00;;;;;;;15.76;78.89;99559.65;84800;1322;22869;-72
2022/05/21 02:31:26;;;;;;;13.30;10.70;;;;;;;15.76;78.83;99555.30;84743;1327;26724;-72
2022/05/21 02:33:33;;;;;;;14.80;10.30;;;;;;;15.74;78.98;99557.17;84812;1328;22594;-72
2022/05/21 02:35:41;;;;;;;13.00;10.60;;;;;;;15.73;78.90;99557.22;84797;1323;22595;-71
2022/05/21 02:40:14;;;;;;;14.20;10.60;;;;;;;15.72;79.07;99554.14;84807;1329;22600;-72
2022/05/21 02:44:46;;;;;;;13.30;11.00;;;;;;;15.71;79.58;99570.92;84750;1328;22588;-72
2022/05/21 02:46:54;;;;;;;13.40;11.90;;;;;;;15.70;79.58;99574.19;84785;1326;22592;-72
2022/05/21 02:49:01;;;;;;;15.30;11.70;;;;;;;15.68;79.51;99577.64;84800;1325;26021;-72
2022/05/21 02:51:09;;;;;;;14.90;12.20;;;;;;;15.67;79.80;99584.23;84798;1327;22585;-71
2022/05/21 02:53:19;;;;;;;12.20;11.10;;;;;;;15.66;80.02;99580.09;84784;1327;22579;-72
2022/05/21 02:55:25;;;;;;;;;;;;;;;15.68;80.38;99579.10;84847;1327;22646;-71
2022/05/21 02:57:33;;;;;;;16.30;12.80;;;;;;;15.65;80.46;99581.19;84816;1326;22591;-71
2022/05/21 02:59:41;;;;;;;15.90;13.50;;;;;;;15.66;80.43;99583.78;84749;1327;24319;-72
2022/05/21 03:01:49;;;;;;;14.90;13.50;;;;;;;15.66;80.56;99583.45;84807;1329;25342;-72
2022/05/21 03:03:56;;;;;;;18.40;16.50;;;;;;;15.65;80.86;99584.70;84795;1326;23046;-72
2022/05/21 03:06:03;;;;;;;22.50;17.90;;;;;;;15.66;81.13;99583.61;84797;1325;22591;-71
2022/05/21 03:10:36;;;;;;;18.50;16.60;;;;;;;15.64;81.22;99578.08;84779;1327;22608;-71
2022/05/21 03:12:44;;;;;;;19.90;17.90;;;;;;;15.65;81.43;99576.64;84826;1329;22601;-71
2022/05/21 03:14:51;;;;;;;24.20;18.60;;;;;;;15.66;81.48;99570.95;84790;1327;25408;-72
2022/05/21 03:17:01;;;;;;;19.70;17.30;;;;;;;15.66;81.59;99564.13;84657;1330;22582;-71
2022/05/21 03:19:09;;;;;;;19.60;16.30;;;;;;;15.66;81.64;99558.42;84693;1331;22703;-72
2022/05/21 03:21:16;;;;;;;18.50;15.30;;;;;;;15.68;81.69;99560.81;84793;1329;22583;-72
2022/05/21 03:23:24;;;;;;;17.40;15.50;;;;;;;15.68;81.68;99555.68;84796;1327;23041;-72
2022/05/21 03:25:31;;;;;;;19.10;15.80;;;;;;;15.70;81.85;99552.70;84805;1323;22681;-72
2022/05/21 03:27:38;;;;;;;24.50;15.90;;;;;;;15.72;81.76;99555.73;84788;1326;22709;-71
2022/05/21 03:29:46;;;;;;;18.10;15.70;;;;;;;15.72;81.74;99553.40;84797;1329;22615;-72
2022/05/21 03:31:54;;;;;;;20.30;15.00;;;;;;;15.71;81.91;99558.62;84809;1323;25599;-72
2022/05/21 03:34:01;;;;;;;19.50;15.50;;;;;;;15.70;81.94;99555.89;84816;1322;22715;-72
2022/05/21 03:36:09;;;;;;;18.20;14.90;;;;;;;15.71;82.02;99551.27;84803;1322;22582;-72
2022/05/21 03:38:19;;;;;;;17.30;13.80;;;;;;;15.70;81.99;99545.32;84796;1319;22643;-73
2022/05/21 03:40:28;;;;;;;15.00;13.40;;;;;;;15.71;82.15;99542.45;84783;1319;25884;-73
2022/05/21 03:42:36;;;;;;;15.40;13.90;;;;;;;15.71;82.23;99537.14;84787;1327;22577;-72
2022/05/21 03:44:43;;;;;;;17.80;14.00;;;;;;;15.73;82.33;99543.89;84799;1329;22605;-72
2022/05/21 03:46:51;;;;;;;24.80;15.40;;;;;;;15.76;82.53;99558.80;84814;1327;22569;-72
2022/05/21 03:48:58;;;;;;;16.30;14.70;;;;;;;15.80;82.70;99571.67;84811;1329;22649;-72
2022/05/21 03:51:05;;;;;;;18.10;16.20;;;;;;;15.82;82.71;99573.35;84805;1327;22645;-72
2022/05/21 03:53:14;;;;;;;17.10;14.30;;;;;;;15.85;82.66;99573.96;84804;1328;22592;-72
2022/05/21 03:55:22;;;;;;;15.80;14.30;;;;;;;15.89;82.70;99569.48;84812;1326;24430;-73
2022/05/21 03:57:29;;;;;;;15.60;14.00;;;;;;;15.91;82.64;99568.25;84793;1329;22601;-72
2022/05/21 03:59:37;;;;;;;20.70;14.30;;;;;;;15.93;82.79;99575.15;84777;1329;22616;-72
2022/05/21 04:01:45;;;;;;;14.30;12.90;;;;;;;15.95;82.71;99580.94;84789;1327;22592;-72
2022/05/21 04:03:54;;;;;;;14.60;13.20;;;;;;;16.00;82.91;99573.77;84824;1323;22783;-73
2022/05/21 04:06:02;;;;;;;16.20;14.40;;;;;;;16.05;82.80;99554.05;84803;1326;23983;-73
2022/05/21 04:08:10;;;;;;;16.20;14.10;;;;;;;16.12;82.96;99541.59;84805;1327;24407;-72
2022/05/21 04:10:18;;;;;;;15.00;13.60;;;;;;;16.17;82.97;99549.45;84800;1329;22645;-72
2022/05/21 04:12:26;;;;;;;17.10;15.30;;;;;;;16.26;83.15;99556.55;84797;1328;22586;-72
2022/05/21 04:14:33;;;;;;;15.90;14.30;;;;;;;16.34;83.25;99555.73;84795;1329;22577;-72
2022/05/21 04:16:41;;;;;;;16.30;14.80;;;;;;;16.40;83.03;99543.32;84801;1327;22600;-72
2022/05/21 04:18:48;;;;;;;16.60;15.00;;;;;;;16.41;82.68;99549.56;84809;1323;22652;-72
2022/05/21 04:20:56;;;;;;;19.90;16.00;;;;;;;16.40;82.59;99552.16;84797;1329;22626;-72
2022/05/21 04:23:03;;;;;;;13.60;12.40;;;;;;;16.39;82.39;99544.63;84796;1326;22591;-72
2022/05/21 04:25:12;;;;;;;15.60;13.90;;;;;;;16.38;82.32;99549.09;84799;1328;22592;-72
2022/05/21 04:27:20;;;;;;;15.50;13.90;;;;;;;16.38;82.55;99546.61;84825;1327;22585;-72
2022/05/21 04:29:27;;;;;;;14.60;13.00;;;;;;;16.38;82.40;99545.77;84805;1327;22682;-72
2022/05/21 04:31:35;;;;;;;15.00;13.40;;;;;;;16.41;82.46;99555.59;84776;1328;23901;-72
2022/05/21 04:33:42;;;;;;;15.40;13.80;;;;;;;16.45;82.51;99562.66;84793;1326;22615;-71
2022/05/21 04:38:15;;;;;;;19.40;15.70;;;;;;;16.54;82.66;99558.88;84802;1328;25287;-72
2022/05/21 04:40:24;;;;;;;16.30;14.70;;;;;;;16.57;82.56;99558.83;84794;1329;22580;-72
2022/05/21 04:42:31;;;;;;;18.60;14.80;;;;;;;16.60;82.35;99558.19;84817;1325;22619;-72
2022/05/21 04:44:39;;;;;;;15.70;14.00;;;;;;;16.63;82.28;99560.09;84796;1319;22581;-71
2022/05/21 04:46:46;;;;;;;15.20;13.70;;;;;;;16.62;82.29;99559.77;84791;1329;22590;-72
2022/05/21 04:48:54;;;;;;;14.50;13.00;;;;;;;16.63;82.15;99557.25;84802;1328;22577;-72
2022/05/21 04:51:03;;;;;;;15.90;14.30;;;;;;;16.65;82.02;99553.06;84788;1328;22577;-72
2022/05/21 04:53:10;;;;;;;15.90;14.00;;;;;;;16.69;82.09;99549.70;84810;1327;22593;-72
2022/05/21 04:55:18;;;;;;;18.70;14.60;;;;;;;16.74;82.15;99547.82;84799;1329;22616;-72
2022/05/21 04:57:25;;;;;;;19.50;15.10;;;;;;;16.78;82.04;99549.31;84776;1329;22706;-72
2022/05/21 04:59:32;;;;;;;17.70;14.80;;;;;;;16.80;82.13;99543.48;84791;1321;22575;-72
2022/05/21 05:01:40;;;;;;;14.70;13.10;;;;;;;16.87;82.09;99546.09;84774;1328;23055;-73
2022/05/21 05:03:48;;;;;;;15.10;13.50;;;;;;;16.91;81.92;99548.28;84806;1330;22590;-70
2022/05/21 05:05:55;;;;;;;15.80;14.20;;;;;;;16.93;81.96;99549.14;84773;1323;26600;-71
2022/05/21 05:08:02;;;;;;;16.90;13.20;;;;;;;16.95;81.74;99548.29;84797;1318;22769;-72
2022/05/21 05:10:12;;;;;;;17.00;15.10;;;;;;;16.98;81.72;99549.27;84808;1322;22600;-72
2022/05/21 05:12:20;;;;;;;16.80;15.10;;;;;;;16.99;81.52;99547.13;84814;1326;24109;-72
2022/05/21 05:14:27;;;;;;;17.40;15.30;;;;;;;16.97;81.57;99546.36;84797;1327;25260;-72
2022/05/21 05:16:34;;;;;;;17.70;16.00;;;;;;;16.95;81.34;99546.58;84798;1326;22571;-71
2022/05/21 05:18:42;;;;;;;18.60;16.70;;;;;;;16.92;81.06;99547.48;84793;1327;22577;-73
2022/05/21 05:20:49;;;;;;;16.90;15.20;;;;;;;16.91;81.12;99550.38;84800;1318;22709;-73
2022/05/21 05:22:57;;;;;;;17.80;16.00;;;;;;;16.86;80.95;99552.16;84802;1327;22589;-72
2022/05/21 05:25:06;;;;;;;17.90;14.90;;;;;;;16.83;81.04;99554.20;84773;1318;22626;-73
2022/05/21 05:27:13;;;;;;;16.20;14.70;;;;;;;16.81;81.08;99550.11;84792;1326;24215;-72
2022/05/21 05:29:20;;;;;;;15.70;14.10;;;;;;;16.81;81.09;99553.10;84775;1329;25372;-72
2022/05/21 05:31:28;;;;;;;17.00;15.30;;;;;;;16.81;81.26;99544.12;84780;1329;22641;-72
2022/05/21 05:33:35;;;;;;;18.20;16.20;;;;;;;16.79;81.38;99543.73;84786;1327;22639;-72
2022/05/21 05:35:43;;;;;;;17.30;15.30;;;;;;;16.79;81.36;99546.23;84801;1325;23068;-72
2022/05/21 05:37:50;;;;;;;16.90;15.30;;;;;;;16.78;81.44;99548.71;84762;1325;23967;-72
2022/05/21 05:39:59;;;;;;;16.20;14.40;;;;;;;16.78;81.42;99545.98;84794;1327;24229;-72
2022/05/21 05:42:09;;;;;;;14.70;13.20;;;;;;;16.76;81.41;99550.83;84709;1331;22610;-73
2022/05/21 05:44:18;;;;;;;16.50;13.80;;;;;;;16.74;81.44;99543.22;84806;1322;24246;-72
2022/05/21 05:46:25;;;;;;;13.70;12.50;;;;;;;16.72;81.52;99540.88;84788;1325;22745;-72
2022/05/21 05:48:33;;;;;;;15.80;11.50;;;;;;;16.74;81.71;99542.39;84791;1319;23106;-73
2022/05/21 05:50:40;;;;;;;11.80;10.60;;;;;;;16.74;81.73;99540.55;84790;1329;22672;-73
2022/05/21 05:52:48;;;;;;;12.10;10.40;;;;;;;16.79;81.77;99543.60;84783;1328;25460;-73
2022/05/21 05:54:55;;;;;;;11.50;10.30;;;;;;;16.81;81.80;99538.48;84785;1326;24434;-72
2022/05/21 05:57:02;;;;;;;12.70;11.40;;;;;;;16.83;81.77;99540.07;84790;1326;22683;-73
2022/05/21 06:01:35;;;;;;;11.00;10.00;;;;;;;16.87;81.82;99541.55;84809;1329;22615;-73
2022/05/21 06:03:42;;;;;;;10.20;9.20;;;;;;;16.89;81.74;99544.38;84810;1329;22584;-73
2022/05/21 06:05:50;;;;;;;12.80;10.00;;;;;;;16.90;81.94;99540.23;84781;1330;22580;-72
2022/05/21 06:07:59;;;;;;;15.50;11.60;;;;;;;16.93;81.93;99545.80;84796;1323;25472;-72
2022/05/21 06:10:08;;;;;;;11.50;10.30;;;;;;;16.94;82.01;99544.67;84812;1326;22588;-72
2022/05/21 06:12:16;;;;;;;11.20;10.20;;;;;;;16.96;82.10;99547.00;84813;1326;22597;-73
2022/05/21 06:14:23;;;;;;;10.40;9.40;;;;;;;16.97;82.18;99548.84;84773;1327;22585;-72
2022/05/21 06:16:30;;;;;;;11.30;10.30;;;;;;;17.01;82.22;99548.39;84812;1328;22650;-73
2022/05/21 06:18:38;;;;;;;9.80;8.40;;;;;;;17.05;82.61;99548.41;84801;1326;22595;-73
2022/05/21 06:20:46;;;;;;;10.10;8.90;;;;;;;17.06;82.45;99544.34;84794;1328;25278;-72
2022/05/21 06:22:54;;;;;;;9.20;8.20;;;;;;;17.09;82.48;99548.66;84814;1321;23712;-73
2022/05/21 06:25:01;;;;;;;8.40;7.50;;;;;;;17.11;82.55;99550.08;84809;1329;22602;-72
2022/05/21 06:27:09;;;;;;;8.70;7.80;;;;;;;17.13;82.45;99549.35;84801;1326;22596;-73
2022/05/21 06:29:17;;;;;;;7.80;7.10;;;;;;;17.18;82.45;99550.02;84779;1329;22593;-73
2022/05/21 06:31:24;;;;;;;8.10;7.20;;;;;;;17.22;82.75;99549.02;84792;1327;22685;-72
2022/05/21 06:33:32;;;;;;;8.20;7.50;;;;;;;17.20;82.39;99549.73;84785;1328;22847;-73
2022/05/21 06:35:40;;;;;;;8.10;7.40;;;;;;;17.20;82.60;99552.00;84793;1326;22624;-72
2022/05/21 06:37:48;;;;;;;7.10;6.50;;;;;;;17.22;82.49;99554.66;84766;1327;25283;-72
2022/05/21 06:39:55;;;;;;;8.60;6.70;;;;;;;17.25;82.70;99557.80;84798;1327;25576;-72
2022/05/21 06:42:03;;;;;;;6.80;5.80;;;;;;;17.26;82.74;99568.08;84785;1327;22580;-72
2022/05/21 06:44:10;;;;;;;6.80;6.20;;;;;;;17.31;82.96;99572.67;84788;1322;24258;-73
2022/05/21 06:46:18;;;;;;;5.80;5.30;;;;;;;17.41;82.86;99572.52;84801;1322;22575;-73
2022/05/21 06:48:25;;;;;;;5.60;5.10;;;;;;;17.72;83.58;99573.64;84677;1327;22579;-72
2022/05/21 06:50:33;;;;;;;7.20;4.90;;;;;;;18.67;85.47;99577.63;84788;1329;22641;-72
2022/05/21 06:52:40;;;;;;;3.90;3.60;;;;;;;19.51;81.70;99581.89;84787;1327;25447;-72
2022/05/21 06:54:48;;;;;;;4.40;3.40;;;;;;;20.64;80.49;99582.05;84803;1327;23914;-72
2022/05/21 06:56:56;;;;;;;3.40;3.00;;;;;;;21.71;76.90;99586.33;84799;1327;22591;-72
2022/05/21 06:59:03;;;;;;;7.20;2.60;;;;;;;22.60;71.94;99590.34;84778;1326;26587;-73
2022/05/21 07:01:11;;;;;;;2.80;2.40;;;;;;;23.54;69.62;99591.86;84787;1323;23074;-73
2022/05/21 07:03:18;;;;;;;8.20;1.70;;;;;;;24.02;65.62;99600.60;84793;1329;22585;-73
2022/05/21 07:07:50;;;;;;;4.40;1.60;;;;;;;24.90;57.07;99605.52;84804;1329;22582;-73
2022/05/21 07:10:00;;;;;;;5.20;1.60;;;;;;;25.44;57.51;99606.75;84796;1328;25504;-72
2022/05/21 07:12:09;;;;;;;7.40;1.60;;;;;;;25.51;55.75;99612.45;84833;1329;22590;-73
2022/05/21 07:14:16;;;;;;;5.10;1.40;;;;;;;25.09;54.71;99613.52;84790;1329;23959;-73
2022/05/21 07:16:24;;;;;;;7.80;1.60;;;;;;;24.64;53.81;99621.77;84790;1322;22694;-73
2022/05/21 07:18:31;;;;;;;6.50;1.20;;;;;;;24.10;54.52;99623.74;84811;1329;22609;-73
2022/05/21 07:20:39;;;;;;;3.20;1.80;;;;;;;23.65;54.70;99629.76;84790;1325;22584;-73
2022/05/21 07:22:47;;;;;;;7.90;1.50;;;;;;;23.15;54.60;99634.34;84776;1328;22610;-73
2022/05/21 07:24:54;;;;;;;5.90;1.90;;;;;;;22.63;54.80;99649.94;84798;1321;23213;-73
2022/05/21 07:27:02;;;;;;;5.20;1.30;;;;;;;22.16;55.48;99647.48;84807;1327;22589;-73
2022/05/21 07:29:10;;;;;;;1.70;1.20;;;;;;;21.72;56.01;99660.19;84818;1329;26713;-73
2022/05/21 07:31:17;;;;;;;4.70;1.90;;;;;;;21.31;56.84;99669.25;84745;1327;22608;-73
2022/05/21 07:33:25;;;;;;;3.10;0.90;;;;;;;20.90;57.08;99665.11;84778;1328;25244;-73
2022/05/21 07:35:34;;;;;;;2.20;1.20;;;;;;;20.48;57.01;99663.64;84810;1327;22625;-72
2022/05/21 07:37:41;;;;;;;2.20;0.80;;;;;;;20.01;56.77;99675.02;84802;1322;24229;-73
2022/05/21 07:39:49;;;;;;;3.50;1.00;;;;;;;19.58;57.67;99683.41;84821;1325;25451;-73
2022/05/21 07:41:56;;;;;;;13.10;1.90;;;;;;;19.25;58.67;99692.38;84796;1326;26684;-72
2022/05/21 07:44:05;;;;;;;;;;;;;;;19.04;59.50;99688.88;84801;1328;23948;-72
2022/05/21 07:46:13;;;;;;;5.50;1.60;;;;;;;18.88;60.69;99693.76;84812;1327;22710;-72
2022/05/21 07:48:27;;;;;;;9.00;8.00;;;;;;;18.83;61.15;99702.45;84791;1329;23036;-72
2022/05/21 07:50:35;;;;;;;2.60;1.20;;;;;;;18.74;61.52;99701.81;84792;1319;22590;-72
2022/05/21 07:52:42;;;;;;;1.50;0.80;;;;;;;18.61;61.34;99704.12;84795;1321;22586;-72
2022/05/21 07:54:53;;;;;;;6.00;0.90;;;;;;;18.47;61.27;99706.28;84790;1326;25317;-72
2022/05/21 07:57:03;;;;;;;4.00;0.90;;;;;;;18.33;61.25;99708.98;84827;1328;22600;-72
2022/05/21 07:59:11;;;;;;;1.70;0.70;;;;;;;18.18;61.39;99709.92;84812;1329;22601;-72
2022/05/21 08:01:19;;;;;;;1.40;0.90;;;;;;;18.03;61.67;99713.68;84792;1329;22596;-72
2022/05/21 08:03:26;;;;;;;4.40;0.60;;;;;;;17.89;61.56;99713.73;84790;1322;24280;-72
2022/05/21 08:05:39;;;;;;;2.80;1.10;;;;;;;17.77;61.68;99713.25;84835;1327;25454;-72
2022/05/21 08:07:50;;;;;;;1.20;0.70;;;;;;;17.61;61.53;99720.02;84790;1328;22591;-72
2022/05/21 08:09:58;;;;;;;6.00;1.00;;;;;;;17.48;62.31;99721.30;84800;1326;22616;-71
2022/05/21 08:12:07;;;;;;;1.70;0.80;;;;;;;17.47;62.78;99727.94;84811;1328;22596;-71
2022/05/21 08:14:15;;;;;;;2.50;1.10;;;;;;;17.42;62.47;99732.71;84805;1327;24350;-72
2022/05/21 08:16:22;;;;;;;4.10;0.80;;;;;;;17.34;62.43;99741.83;84774;1327;24247;-72
2022/05/21 08:18:31;;;;;;;2.70;0.80;;;;;;;17.27;62.71;99749.23;84812;1329;24268;-72
2022/05/21 08:20:44;;;;;;;10.00;1.60;;;;;;;17.24;62.95;99739.75;84774;1326;22610;-72
2022/05/21 08:27:50;;;;;;;2.00;0.70;;;;;;;18.28;61.20;99751.10;84743;1326;24110;-73
2022/05/21 08:29:58;;;;;;;3.60;0.50;;;;;;;18.50;59.33;99751.60;84767;1326;22601;-74
2022/05/21 08:32:07;;;;;;;6.90;1.10;;;;;;;18.57;58.97;99751.45;84793;1319;22741;-73
2022/05/21 08:34:14;;;;;;;1.50;0.70;;;;;;;18.53;57.99;99760.50;84782;1326;22561;-71
2022/05/21 08:36:22;;;;;;;3.10;0.90;;;;;;;18.43;57.96;99769.85;84795;1326;24391;-72
2022/05/21 08:38:29;;;;;;;6.00;0.80;;;;;;;18.32;57.63;99770.58;84647;1326;24262;-72
2022/05/21 08:40:42;;;;;;;10.70;1.10;;;;;;;18.17;57.24;99777.92;84805;1326;22594;-72
2022/05/21 08:42:56;;;;;;;3.00;0.90;;;;;;;18.02;56.98;99775.40;84803;1322;22716;-73
2022/05/21 08:45:15;;;;;;;3.30;1.20;;;;;;;17.86;57.36;99784.63;84715;1327;22589;-73
2022/05/21 08:47:26;;;;;;;8.10;0.90;;;;;;;17.68;56.86;99790.38;84799;1329;22534;-73
2022/05/21 08:49:42;;;;;;;6.20;0.70;;;;;;;17.49;56.36;99790.75;84791;1329;22610;-72
2022/05/21 08:51:53;;;;;;;6.20;0.50;;;;;;;17.27;56.61;99800.89;84795;1329;22665;-73
2022/05/21 08:54:04;;;;;;;7.00;0.50;;;;;;;17.16;57.24;99802.40;84765;1330;26693;-73
2022/05/21 08:56:11;;;;;;;2.80;0.60;;;;;;;17.17;58.03;99800.77;84802;1318;22615;-72
2022/05/21 08:58:25;;;;;;;3.00;0.60;;;;;;;17.29;58.35;99790.84;84814;1326;22908;-72
2022/05/21 09:00:37;;;;;;;3.10;0.90;;;;;;;17.52;58.07;99786.98;84790;1328;22593;-72
2022/05/21 09:02:45;;;;;;;5.10;1.30;;;;;;;17.65;57.80;99796.05;84783;1328;23946;-73
2022/05/21 09:04:52;;;;;;;3.30;1.10;;;;;;;17.69;56.67;99788.66;84788;1326;25325;-72
2022/05/21 09:07:03;;;;;;;6.00;0.80;;;;;;;17.66;55.91;99785.79;84775;1328;26707;-73
2022/05/21 09:09:19;;;;;;;6.70;1.40;;;;;;;17.59;55.63;99791.60;84794;1327;22580;-73
2022/05/21 09:11:34;;;;;;;3.80;1.10;;;;;;;17.54;55.88;99797.21;84783;1328;22665;-71
2022/05/21 09:13:44;;;;;;;3.90;1.70;;;;;;;17.49;55.48;99792.70;84804;1329;22706;-73
2022/05/21 09:18:17;;;;;;;6.40;1.10;;;;;;;17.37;54.81;99798.75;84792;1322;22594;-72
2022/05/21 09:20:24;;;;;;;4.70;0.80;;;;;;;17.35;55.53;99802.21;84809;1328;22585;-73
2022/05/21 09:22:32;;;;;;;2.80;0.90;;;;;;;17.42;55.92;99800.13;84794;1329;24132;-72
2022/05/21 09:24:44;;;;;;;1.20;0.70;;;;;;;17.49;55.55;99788.45;84781;1329;22579;-72
2022/05/21 09:26:53;;;;;;;3.60;0.70;;;;;;;17.59;55.12;99790.16;84813;1325;22603;-73
2022/05/21 09:29:18;;;;;;;3.60;0.80;;;;;;;17.72;54.43;99798.37;84766;1330;22600;-72
2022/05/21 09:31:30;;;;;;;11.80;0.60;;;;;;;17.91;53.62;99795.19;84799;1327;22829;-72
2022/05/21 09:33:40;;;;;;;4.50;0.70;;;;;;;18.10;53.48;99794.21;84779;1331;22603;-73
2022/05/21 09:35:54;;;;;;;4.00;0.80;;;;;;;18.28;53.39;99797.31;84772;1327;22648;-73
2022/05/21 09:38:13;;;;;;;4.10;0.70;;;;;;;18.46;53.05;99797.86;84817;1326;22577;-72
2022/05/21 09:40:34;;;;;;;5.50;0.70;;;;;;;18.56;52.58;99792.63;84812;1329;22600;-73
2022/05/21 09:45:24;;;;;;;1.60;0.40;;;;;;;18.38;51.49;99805.20;84795;1326;22809;-73
2022/05/21 09:47:32;;;;;;;1.40;0.40;;;;;;;18.22;52.00;99814.41;84796;1327;22657;-72
2022/05/21 09:49:40;;;;;;;3.30;0.80;;;;;;;18.20;52.61;99808.77;84773;1323;24264;-72
2022/05/21 09:51:56;;;;;;;4.80;0.70;;;;;;;18.26;52.71;99812.89;84788;1319;22834;-72
2022/05/21 09:54:04;;;;;;;6.50;1.00;;;;;;;18.22;52.74;99815.48;84786;1323;22572;-72
2022/05/21 09:56:19;;;;;;;2.60;0.80;;;;;;;18.15;53.05;99822.23;84791;1326;22591;-71
2022/05/21 09:58:27;;;;;;;1.50;0.80;;;;;;;18.07;53.28;99823.91;84805;1329;22707;-72
2022/05/21 10:00:35;;;;;;;2.50;0.80;;;;;;;17.97;53.27;99823.28;84781;1326;22844;-72
2022/05/21 10:02:46;;;;;;;2.60;0.70;;;;;;;17.79;53.36;99825.31;84803;1329;22599;-72
2022/05/21 10:04:56;;;;;;;6.10;1.80;;;;;;;17.62;53.37;99835.81;84790;1330;22615;-72
2022/05/21 10:10:58;;;;;;;;;;;;;;;17.48;53.88;99836.70;84814;1329;26269;-71
2022/05/21 10:12:21;;;;;;;4.00;1.40;;;;;;;17.14;54.49;99842.39;84807;1322;22582;-73
2022/05/21 10:14:34;;;;;;;3.30;1.20;;;;;;;17.03;54.62;99858.15;84773;1327;24102;-72
2022/05/21 10:16:47;;;;;;;1.70;0.70;;;;;;;16.93;54.70;99864.52;84790;1326;27167;-72
2022/05/21 10:18:58;;;;;;;2.20;0.80;;;;;;;16.79;54.97;99868.86;84806;1327;22587;-72
2022/05/21 10:21:16;;;;;;;5.30;1.30;;;;;;;16.71;55.22;99876.81;84803;1327;22613;-73
2022/05/21 10:23:34;;;;;;;7.80;1.10;;;;;;;16.73;55.50;99878.33;84830;1328;22681;-72
2022/05/21 10:25:55;;;;;;;9.10;1.00;;;;;;;16.84;55.75;99880.20;84768;1324;22622;-72
2022/05/21 10:28:26;;;;;;;1.50;0.80;;;;;;;16.98;55.75;99876.89;84747;1330;22606;-72
2022/05/21 10:30:44;;;;;;;3.50;0.80;;;;;;;17.11;55.37;99883.02;84775;1326;22626;-72
2022/05/21 10:33:11;;;;;;;5.70;0.80;;;;;;;17.24;55.08;99879.20;84774;1330;22585;-71